메인 페이지
METAR-TAF:

METAR-TAF

공항 :

인천국제공항

인천, 대한민국

위도: 37-28N, 경도: 126-27E, 고도: 7m

현재 날씨관측

예보는 43분 전, 12:00시(UTC)에 발표되었습니다.
북북동4kt
온도 28°C
습도 84%
기압 1007 hPa
시정 10km 이상
1500m 미만 상공 구름 및 적란운 없음

METAR: RKSI 251200Z 02004KT CAVOK 28/25 Q1007 NOSIG

시각: 21:43 (12:43 UTC)

예보

예보는 1 시간 43분 전, 11:00시(UTC)에 발표되었습니다.
예보 대상 시간: 25일 12시부터 26일 18시까지 (UTC)
서남서5kt
시정 10km 이상
1500m 미만 상공 구름 및 적란운 없음
전환 중
25일 13시부터 25일 15시까지 (UTC)
남남동8kt
전환 중
26일 05시부터 26일 07시까지 (UTC)
남남서10kt
시정 10km 이상
고도 3000ft 상공 구름 보통
고도 12000ft 상공 구름 많음
일시적
26일 08시부터 26일 09시까지 (UTC)
12kt
시정: 6000m
고도 1000ft 상공 구름 조금
고도 2500ft 상공 구름 많음
고도 8000ft 상공 흐림
약한소나기
전환 중
26일 10시부터 26일 12시까지 (UTC)
남남동10kt
전환 중
26일 16시부터 26일 18시까지 (UTC)
고도 1000ft 상공 구름 조금
고도 3000ft 상공 구름 많음
고도 8000ft 상공 구름 많음

TAF: RKSI 251100Z 2512/2618 25005KT CAVOK TN26/2519Z TX33/2605Z BECMG 2513/2515 15008KT BECMG 2605/2607 21010KT 9999 SCT030 BKN120 TEMPO 2608/2609 18012KT 6000 -SHRA FEW010 BKN025 OVC080 BECMG 2610/2612 15010KT BECMG 2616/2618 FEW010 BKN030 BKN080

4,000개 이상의 공항 관측 자료 및 예보 (METAR 및 TAF 보고).

지도상에서 검색 가능한 기상관측소가 노란 점과 빨간 점으로 표시되어 있습니다.

기상관측소 명을 보려면 표시 위로 마우스를 이동하세요.

날씨 관측과 예보를 보려면 클릭하세요.

지도 변경 : 확대하려면 엑스 표시가 있는 녹색 버튼, 축소하려면 빼기 표시가 있는 녹색 버튼, 다음 페이지의 지도를 보려면 녹색 화살표를 클릭하세요.


METAR-TAF: